createdAt,value
2022-11-23T00:01:37.387Z,99187.78
2022-11-23T00:04:13.401Z,99186.75
2022-11-23T00:06:42.257Z,99196.16
2022-11-23T00:09:12.714Z,99192.31
2022-11-23T00:11:40.990Z,99189.25
2022-11-23T00:14:09.514Z,99200.72
2022-11-23T00:16:37.899Z,99197.91
2022-11-23T00:19:06.241Z,99204.75
2022-11-23T00:21:34.866Z,99213.66
2022-11-23T00:24:03.680Z,99213.59
2022-11-23T00:26:32.029Z,99213.31
2022-11-23T00:29:00.349Z,99206.88
2022-11-23T00:31:28.929Z,99209.44
2022-11-23T00:33:58.807Z,99213.47
2022-11-23T00:36:28.401Z,99217.53
2022-11-23T00:38:58.582Z,99220.03
2022-11-23T00:41:28.745Z,99219.22
2022-11-23T00:43:57.309Z,99231.16
2022-11-23T00:46:30.031Z,99233.72
2022-11-23T00:48:59.056Z,99236.50
2022-11-23T00:51:30.946Z,99243.88
2022-11-23T00:54:00.819Z,99256.34
2022-11-23T00:56:30.303Z,99255.28
2022-11-23T00:59:00.460Z,99257.81
2022-11-23T01:01:31.913Z,99261.09
2022-11-23T01:04:01.381Z,99264.38
2022-11-23T01:06:38.511Z,99269.19
2022-11-23T01:09:10.264Z,99275.28
2022-11-23T01:11:38.663Z,99284.19
2022-11-23T01:14:07.401Z,99289.50
2022-11-23T01:16:41.673Z,99290.72
2022-11-23T01:19:13.317Z,99300.91
2022-11-23T01:21:41.870Z,99305.00
2022-11-23T01:24:24.447Z,99312.91
2022-11-23T01:26:56.968Z,99308.50
2022-11-23T01:29:25.758Z,99313.59
2022-11-23T01:31:54.045Z,99314.59
2022-11-23T01:34:22.324Z,99315.09
2022-11-23T01:36:50.625Z,99318.59
2022-11-23T01:39:19.058Z,99326.22
2022-11-23T01:41:47.591Z,99323.13
2022-11-23T01:44:28.430Z,99323.28
2022-11-23T01:47:00.401Z,99327.09
2022-11-23T01:49:50.756Z,99329.06
2022-11-23T01:52:27.058Z,99331.34
2022-11-23T01:54:58.180Z,99341.00
2022-11-23T01:57:33.039Z,99336.94
2022-11-23T02:00:01.831Z,99338.47
2022-11-23T02:02:32.475Z,99350.69
2022-11-23T02:05:03.564Z,99348.13
2022-11-23T02:07:33.840Z,99348.56
2022-11-23T02:10:02.596Z,99349.56
2022-11-23T02:12:30.897Z,99355.13
2022-11-23T02:14:59.235Z,99357.91
2022-11-23T02:17:27.548Z,99357.09
2022-11-23T02:20:09.038Z,99358.53
2022-11-23T02:22:58.858Z,99362.78
2022-11-23T02:25:34.960Z,99359.59
2022-11-23T02:28:03.868Z,99367.44
2022-11-23T02:30:33.595Z,99369.88
2022-11-23T02:33:06.426Z,99369.03
2022-11-23T02:35:36.074Z,99375.13
2022-11-23T02:38:08.151Z,99375.03
2022-11-23T02:40:37.957Z,99368.06
2022-11-23T02:43:06.502Z,99367.97
2022-11-23T02:45:44.789Z,99363.44
2022-11-23T02:48:13.357Z,99362.09
2022-11-23T02:50:41.657Z,99364.72
2022-11-23T02:53:10.082Z,99365.06
2022-11-23T02:55:38.749Z,99357.72
2022-11-23T02:58:07.814Z,99362.75
2022-11-23T03:00:36.819Z,99366.44
2022-11-23T03:03:05.927Z,99350.63
2022-11-23T03:05:34.570Z,99348.69
2022-11-23T03:08:02.865Z,99339.34
2022-11-23T03:10:31.576Z,99335.09
2022-11-23T03:12:59.863Z,99331.66
2022-11-23T03:15:28.157Z,99321.75
2022-11-23T03:17:58.855Z,99323.75
2022-11-23T03:20:27.135Z,99317.53
2022-11-23T03:22:55.430Z,99322.09
2022-11-23T03:25:23.711Z,99315.56
2022-11-23T03:27:51.965Z,99318.28
2022-11-23T03:30:20.420Z,99311.00
2022-11-23T03:32:48.714Z,99313.50
2022-11-23T03:35:17.010Z,99310.88
2022-11-23T03:37:45.384Z,99303.72
2022-11-23T03:40:14.037Z,99303.72
2022-11-23T03:42:42.879Z,99293.19
2022-11-23T03:45:11.783Z,99291.88
2022-11-23T03:47:40.098Z,99292.41
2022-11-23T03:50:08.986Z,99280.22
2022-11-23T03:52:37.265Z,99284.78
2022-11-23T03:55:05.971Z,99277.28
2022-11-23T03:57:34.472Z,99270.53
2022-11-23T04:00:03.027Z,99265.31
2022-11-23T04:02:31.300Z,99266.91
2022-11-23T04:04:59.556Z,99261.56
2022-11-23T04:07:28.183Z,99259.59
2022-11-23T04:09:56.563Z,99248.34
2022-11-23T04:12:25.418Z,99249.91
2022-11-23T04:14:53.893Z,99240.94
2022-11-23T04:17:22.185Z,99235.38
2022-11-23T04:19:50.461Z,99241.84
2022-11-23T04:22:18.743Z,99227.97
2022-11-23T04:24:46.989Z,99226.31
2022-11-23T04:27:15.263Z,99224.84
2022-11-23T04:29:43.563Z,99217.53
2022-11-23T04:32:11.869Z,99213.56
2022-11-23T04:34:40.165Z,99212.47
2022-11-23T04:37:13.055Z,99206.25
2022-11-23T04:39:41.933Z,99202.50
2022-11-23T04:42:14.262Z,99198.22
2022-11-23T04:44:42.546Z,99200.31
2022-11-23T04:47:11.999Z,99192.06
2022-11-23T04:49:40.312Z,99185.91
2022-11-23T04:52:08.608Z,99178.75
2022-11-23T04:54:36.969Z,99177.44
2022-11-23T04:57:05.356Z,99171.97
2022-11-23T04:59:33.850Z,99174.22
2022-11-23T05:02:02.457Z,99159.50
2022-11-23T05:04:30.766Z,99160.63
2022-11-23T05:06:59.103Z,99150.63
2022-11-23T05:09:27.404Z,99146.47
2022-11-23T05:11:55.741Z,99134.97
2022-11-23T05:14:24.016Z,99130.63
2022-11-23T05:16:52.296Z,99126.09
2022-11-23T05:19:20.611Z,99126.47
2022-11-23T05:21:48.955Z,99127.97
2022-11-23T05:24:17.299Z,99111.88
2022-11-23T05:26:45.564Z,99107.16
2022-11-23T05:29:13.840Z,99098.44
2022-11-23T05:31:42.112Z,99107.69
2022-11-23T05:34:10.576Z,99095.28
2022-11-23T05:36:42.275Z,99093.59
2022-11-23T05:39:10.906Z,99085.69
2022-11-23T05:41:39.175Z,99080.22
2022-11-23T05:44:07.521Z,99074.97
2022-11-23T05:46:35.846Z,99067.22
2022-11-23T05:49:04.137Z,99059.13
2022-11-23T05:51:33.150Z,99051.56
2022-11-23T05:54:03.685Z,99052.47
2022-11-23T05:56:35.797Z,99038.31
2022-11-23T05:59:06.343Z,99035.66
2022-11-23T06:01:34.985Z,99030.34
2022-11-23T06:04:03.506Z,99020.69
2022-11-23T06:06:31.772Z,99012.75
2022-11-23T06:09:00.098Z,99015.19
2022-11-23T06:11:28.380Z,99013.13
2022-11-23T06:13:56.655Z,99007.09
2022-11-23T06:16:25.130Z,98997.06
2022-11-23T06:18:53.711Z,98989.13
2022-11-23T06:21:22.036Z,98985.34
2022-11-23T06:23:51.010Z,98979.28
2022-11-23T06:26:19.344Z,98986.06
2022-11-23T06:28:47.722Z,98971.69
2022-11-23T06:31:15.982Z,98957.09
2022-11-23T06:33:44.307Z,98966.53
2022-11-23T06:36:13.519Z,98951.44
2022-11-23T06:38:41.785Z,98963.00
2022-11-23T06:41:10.227Z,98963.81
2022-11-23T06:43:38.551Z,98985.38
2022-11-23T06:46:08.494Z,98969.72
2022-11-23T06:48:36.928Z,98979.59
2022-11-23T06:51:05.374Z,98968.66
2022-11-23T06:53:33.637Z,98963.94
2022-11-23T06:56:02.272Z,98977.34
2022-11-23T06:58:30.865Z,98976.00
2022-11-23T07:01:04.162Z,98977.63
2022-11-23T07:03:32.912Z,98970.81
2022-11-23T07:06:01.325Z,98962.66
2022-11-23T07:08:29.631Z,98964.28
2022-11-23T07:11:02.442Z,98961.97
2022-11-23T07:13:30.811Z,98960.63
2022-11-23T07:16:00.028Z,98954.19
2022-11-23T07:18:28.668Z,98945.44
2022-11-23T07:20:59.979Z,98949.75
2022-11-23T07:23:28.652Z,98950.81
2022-11-23T07:25:56.953Z,98944.56
2022-11-23T07:28:25.266Z,98949.06
2022-11-23T07:30:53.911Z,98948.66
2022-11-23T07:33:22.266Z,98949.97
2022-11-23T07:35:50.551Z,98945.63
2022-11-23T07:38:18.893Z,98951.47
2022-11-23T07:40:52.145Z,98947.09
2022-11-23T07:43:20.469Z,98947.78
2022-11-23T07:45:48.756Z,98942.09
2022-11-23T07:48:17.568Z,98938.44
2022-11-23T07:50:45.892Z,98937.09
2022-11-23T07:53:14.195Z,98937.22
2022-11-23T07:55:42.613Z,98940.31
2022-11-23T07:58:11.532Z,98931.91
2022-11-23T08:00:39.968Z,98940.88
2022-11-23T08:05:56.763Z,98943.41
2022-11-23T08:08:25.085Z,98935.84
2022-11-23T08:10:54.484Z,98927.81
2022-11-23T08:13:24.027Z,98921.91
2022-11-23T08:15:55.336Z,98924.22
2022-11-23T08:18:25.231Z,98918.72
2022-11-23T08:20:53.813Z,98920.16
2022-11-23T08:23:22.751Z,98912.25
2022-11-23T08:25:51.032Z,98901.72
2022-11-23T08:28:19.787Z,98908.88
2022-11-23T08:30:49.091Z,98906.25
2022-11-23T08:33:17.805Z,98898.56
2022-11-23T08:35:46.289Z,98916.22
2022-11-23T08:38:14.976Z,98902.91
2022-11-23T08:40:43.287Z,98903.09
2022-11-23T08:43:11.580Z,98902.34
2022-11-23T08:45:39.885Z,98900.28
2022-11-23T08:48:08.532Z,98895.41
2022-11-23T08:50:38.034Z,98903.66
2022-11-23T08:53:06.625Z,98895.75
2022-11-23T08:55:34.990Z,98901.94
2022-11-23T08:58:03.334Z,98904.75
2022-11-23T09:00:31.930Z,98904.75
2022-11-23T09:03:00.893Z,98905.50
2022-11-23T09:05:30.795Z,98908.53
2022-11-23T09:08:02.186Z,98911.75
2022-11-23T09:10:30.554Z,98911.41
2022-11-23T09:13:00.384Z,98906.78
2022-11-23T09:15:28.829Z,98904.16
2022-11-23T09:17:58.714Z,98908.16
2022-11-23T09:20:27.466Z,98906.09
2022-11-23T09:22:56.590Z,98913.78
2022-11-23T09:25:25.015Z,98925.06
2022-11-23T09:28:01.645Z,98929.94
2022-11-23T09:30:30.051Z,98941.22
2022-11-23T09:32:58.982Z,98940.25
2022-11-23T09:35:27.476Z,98949.25
2022-11-23T09:38:02.406Z,98952.41
2022-11-23T09:40:34.259Z,98939.41
2022-11-23T09:43:23.723Z,98942.34
2022-11-23T09:45:56.274Z,98929.13
2022-11-23T09:48:36.486Z,98931.34
2022-11-23T09:51:24.490Z,98936.31
2022-11-23T09:54:01.353Z,98945.41
2022-11-23T09:56:33.768Z,98944.22
2022-11-23T09:59:07.269Z,98942.06
2022-11-23T10:01:35.657Z,98936.56
2022-11-23T10:04:05.968Z,98928.97
2022-11-23T10:06:41.596Z,98940.56
2022-11-23T10:09:18.595Z,98940.88
2022-11-23T10:11:55.565Z,98944.25
2022-11-23T10:14:50.240Z,98953.78
2022-11-23T10:17:53.771Z,98955.63
2022-11-23T10:20:56.369Z,98963.84
2022-11-23T10:23:41.436Z,98967.22
2022-11-23T10:26:21.063Z,98973.91
2022-11-23T10:28:51.928Z,98979.34
2022-11-23T10:31:22.648Z,98988.31
2022-11-23T10:34:11.869Z,98985.25
2022-11-23T10:36:41.318Z,98981.22
2022-11-23T10:39:29.229Z,98984.84
2022-11-23T10:42:03.056Z,98976.13
2022-11-23T10:44:38.924Z,98973.09
2022-11-23T10:47:07.275Z,98985.66
2022-11-23T10:49:37.078Z,98988.25
2022-11-23T10:52:30.636Z,98988.03
2022-11-23T10:55:10.088Z,98983.50
2022-11-23T10:57:46.563Z,98977.66
2022-11-23T11:00:15.064Z,98981.00
2022-11-23T11:02:46.205Z,98984.13
2022-11-23T11:05:46.399Z,98998.00
2022-11-23T11:08:20.715Z,99000.56
2022-11-23T11:11:04.111Z,99003.91
2022-11-23T11:13:48.247Z,99005.75
2022-11-23T11:16:34.002Z,99004.22
2022-11-23T11:19:32.487Z,99000.66
2022-11-23T11:22:03.824Z,99001.19
2022-11-23T11:24:32.451Z,99005.84
2022-11-23T11:27:07.817Z,99022.50
2022-11-23T11:29:41.020Z,99025.09
2022-11-23T11:32:12.001Z,99029.97
2022-11-23T11:34:52.043Z,99052.25
2022-11-23T11:37:32.749Z,99059.91
2022-11-23T11:40:21.326Z,99066.84
2022-11-23T11:42:58.921Z,99066.09
2022-11-23T11:45:32.712Z,99051.25
2022-11-23T11:48:09.441Z,99046.94
2022-11-23T11:50:50.838Z,99054.59
2022-11-23T11:53:26.133Z,99057.97
2022-11-23T11:56:14.229Z,99058.72
2022-11-23T11:58:50.992Z,99067.16
2022-11-23T12:01:26.644Z,99082.75
2022-11-23T12:04:08.411Z,99084.03
2022-11-23T12:06:47.582Z,99090.41
2022-11-23T12:09:28.346Z,99091.47
2022-11-23T12:11:56.730Z,99123.94
2022-11-23T12:14:25.563Z,99165.91
2022-11-23T12:17:45.000Z,99208.91
2022-11-23T12:20:26.330Z,99230.75
2022-11-23T12:23:20.374Z,99232.81
2022-11-23T12:29:54.570Z,99242.09
2022-11-23T12:32:45.372Z,99255.81
2022-11-23T12:35:35.974Z,99265.63
2022-11-23T12:38:35.145Z,99254.47
2022-11-23T12:41:24.804Z,99248.16
2022-11-23T12:44:16.179Z,99255.56
2022-11-23T12:47:13.920Z,99247.69
2022-11-23T12:50:05.009Z,99249.78
2022-11-23T12:52:59.230Z,99251.56
2022-11-23T12:55:45.971Z,99260.72
2022-11-23T12:58:30.280Z,99268.09
2022-11-23T13:01:07.874Z,99273.47
2022-11-23T13:03:54.405Z,99261.22
2022-11-23T13:07:05.666Z,99261.75
2022-11-23T13:09:53.272Z,99263.53
2022-11-23T13:12:54.031Z,99267.38
2022-11-23T13:15:54.415Z,99273.50
2022-11-23T13:19:02.985Z,99271.44
2022-11-23T13:21:44.969Z,99273.50
2022-11-23T13:24:32.266Z,99266.63
2022-11-23T13:27:16.119Z,99262.28
2022-11-23T13:29:53.568Z,99261.78
2022-11-23T13:32:54.484Z,99259.47
2022-11-23T13:35:22.739Z,99267.38
2022-11-23T13:38:03.036Z,99272.22
2022-11-23T13:40:36.427Z,99268.38
2022-11-23T13:43:21.613Z,99267.09
2022-11-23T13:46:33.155Z,99265.84
2022-11-23T13:49:01.701Z,99261.75
2022-11-23T13:51:33.303Z,99251.31
2022-11-23T13:54:22.449Z,99263.28
2022-11-23T13:57:02.757Z,99257.66
2022-11-23T13:59:33.137Z,99276.00
2022-11-23T14:02:11.192Z,99271.16
2022-11-23T14:04:44.569Z,99280.34
2022-11-23T14:07:30.638Z,99280.34
2022-11-23T14:10:16.377Z,99284.16
2022-11-23T14:13:02.641Z,99283.63
2022-11-23T14:15:36.183Z,99290.53
2022-11-23T14:18:31.340Z,99298.69
2022-11-23T14:21:02.836Z,99294.63
2022-11-23T14:24:14.117Z,99295.38
2022-11-23T14:27:31.239Z,99301.75
2022-11-23T14:30:43.160Z,99295.13
2022-11-23T14:33:34.340Z,99300.44
2022-11-23T14:36:08.554Z,99289.50
2022-11-23T14:38:55.928Z,99288.50
2022-11-23T14:41:30.677Z,99299.97
2022-11-23T14:44:01.628Z,99295.41
2022-11-23T14:46:29.965Z,99297.94
2022-11-23T14:49:07.935Z,99295.41
2022-11-23T14:51:40.799Z,99295.16
2022-11-23T14:54:12.281Z,99291.59
2022-11-23T14:56:47.222Z,99287.78
2022-11-23T14:59:18.743Z,99288.28
2022-11-23T15:01:54.482Z,99298.75
2022-11-23T15:04:38.680Z,99297.22
2022-11-23T15:07:31.587Z,99292.59
2022-11-23T15:10:31.907Z,99283.44
2022-11-23T15:13:00.201Z,99283.44
2022-11-23T15:15:31.565Z,99281.41
2022-11-23T15:18:02.180Z,99276.56
2022-11-23T15:20:58.594Z,99261.03
2022-11-23T15:23:51.168Z,99265.34
2022-11-23T15:29:32.030Z,99258.22
2022-11-23T15:32:28.594Z,99270.19
2022-11-23T15:34:51.269Z,99263.06
2022-11-23T15:37:20.375Z,99266.38
2022-11-23T15:39:49.795Z,99265.63
2022-11-23T15:42:23.739Z,99266.13
2022-11-23T15:44:54.577Z,99256.97
2022-11-23T15:47:31.880Z,99256.97
2022-11-23T15:50:09.473Z,99253.41
2022-11-23T15:52:39.471Z,99259.75
2022-11-23T15:55:13.904Z,99267.41
2022-11-23T15:57:43.669Z,99259.75
2022-11-23T16:00:25.837Z,99249.31
2022-11-23T16:02:54.617Z,99254.16
2022-11-23T16:05:24.933Z,99269.44
2022-11-23T16:08:00.382Z,99261.03
2022-11-23T16:10:38.373Z,99257.47
2022-11-23T16:13:09.755Z,99255.94
2022-11-23T16:15:45.198Z,99261.56
2022-11-23T16:18:19.453Z,99258.00
2022-11-23T16:20:56.425Z,99257.22
2022-11-23T16:23:55.842Z,99258.50
2022-11-23T16:26:34.660Z,99266.13
2022-11-23T16:29:04.506Z,99249.84
2022-11-23T16:31:38.626Z,99243.47
2022-11-23T16:34:33.203Z,99254.94
2022-11-23T16:37:04.930Z,99247.56
2022-11-23T16:39:33.285Z,99244.53
2022-11-23T16:42:01.608Z,99249.34
2022-11-23T16:44:32.213Z,99243.50
2022-11-23T16:47:22.543Z,99245.53
2022-11-23T16:49:52.084Z,99238.41
2022-11-23T16:52:21.003Z,99242.75
2022-11-23T16:54:49.663Z,99234.81
2022-11-23T16:57:39.347Z,99242.47
2022-11-23T17:00:23.286Z,99242.47
2022-11-23T17:02:51.670Z,99237.63
2022-11-23T17:05:24.811Z,99228.75
2022-11-23T17:07:53.141Z,99233.06
2022-11-23T17:10:21.629Z,99232.31
2022-11-23T17:12:56.100Z,99239.44
2022-11-23T17:15:26.000Z,99234.59
2022-11-23T17:17:54.354Z,99243.00
2022-11-23T17:20:22.650Z,99240.19
2022-11-23T17:22:52.871Z,99239.44
2022-11-23T17:25:21.175Z,99232.56
2022-11-23T17:27:49.632Z,99230.28
2022-11-23T17:30:22.019Z,99225.19
2022-11-23T17:32:51.197Z,99225.19
2022-11-23T17:35:19.754Z,99232.81
2022-11-23T17:37:48.327Z,99224.41
2022-11-23T17:40:19.046Z,99232.81
2022-11-23T17:42:48.031Z,99223.63
2022-11-23T17:45:16.785Z,99229.22
2022-11-23T17:47:46.418Z,99225.66
2022-11-23T17:50:19.248Z,99234.34
2022-11-23T17:52:48.597Z,99241.97
2022-11-23T17:55:17.508Z,99240.72
2022-11-23T17:57:45.911Z,99242.22
2022-11-23T18:00:22.743Z,99231.03
2022-11-23T18:02:51.494Z,99242.47
2022-11-23T18:05:21.802Z,99231.28
2022-11-23T18:07:51.802Z,99228.47
2022-11-23T18:10:20.355Z,99231.28
2022-11-23T18:12:48.989Z,99225.69
2022-11-23T18:15:17.311Z,99227.97
2022-11-23T18:17:45.838Z,99231.53
2022-11-23T18:20:14.622Z,99227.19
2022-11-23T18:22:43.059Z,99229.50
2022-11-23T18:25:11.490Z,99219.06
2022-11-23T18:27:39.802Z,99212.94
2022-11-23T18:30:09.256Z,99216.50
2022-11-23T18:32:37.530Z,99198.16
2022-11-23T18:35:06.127Z,99193.34
2022-11-23T18:37:34.437Z,99186.97
2022-11-23T18:40:02.904Z,99184.16
2022-11-23T18:42:31.406Z,99192.56
2022-11-23T18:45:02.152Z,99188.50
2022-11-23T18:47:30.434Z,99186.97
2022-11-23T18:50:02.086Z,99183.66
2022-11-23T18:52:34.369Z,99182.88
2022-11-23T18:55:02.653Z,99181.63
2022-11-23T18:57:31.146Z,99181.63
2022-11-23T18:59:59.539Z,99172.44
2022-11-23T19:02:27.944Z,99169.13
2022-11-23T19:04:56.327Z,99174.22
2022-11-23T19:07:27.216Z,99171.41
2022-11-23T19:09:55.995Z,99153.09
2022-11-23T19:12:24.602Z,99152.06
2022-11-23T19:14:52.857Z,99142.13
2022-11-23T19:17:21.196Z,99137.28
2022-11-23T19:19:49.460Z,99132.44
2022-11-23T19:22:17.766Z,99119.22
2022-11-23T19:24:46.033Z,99127.63
2022-11-23T19:27:14.323Z,99116.91
2022-11-23T19:29:42.627Z,99118.97
2022-11-23T19:32:10.891Z,99111.31
2022-11-23T19:34:39.158Z,99101.16
2022-11-23T19:37:07.429Z,99097.59
2022-11-23T19:39:35.887Z,99095.81
2022-11-23T19:42:04.896Z,99089.44
2022-11-23T19:44:33.164Z,99090.72
2022-11-23T19:47:02.875Z,99094.06
2022-11-23T19:49:32.394Z,99097.63
2022-11-23T19:52:00.861Z,99101.69
2022-11-23T19:54:29.635Z,99100.16
2022-11-23T19:56:58.012Z,99094.56
2022-11-23T19:59:26.794Z,99100.94
2022-11-23T20:01:55.124Z,99102.97
2022-11-23T20:04:23.421Z,99102.97
2022-11-23T20:06:52.557Z,99101.94
2022-11-23T20:09:21.970Z,99093.03
2022-11-23T20:11:51.557Z,99096.59
2022-11-23T20:14:21.207Z,99093.78
2022-11-23T20:16:49.529Z,99095.31
2022-11-23T20:19:17.866Z,99098.88
2022-11-23T20:21:46.149Z,99101.66
2022-11-23T20:24:15.512Z,99098.88
2022-11-23T20:26:44.187Z,99098.34
2022-11-23T20:29:14.624Z,99098.59
2022-11-23T20:31:43.149Z,99092.47
2022-11-23T20:34:16.654Z,99105.72
2022-11-23T20:36:48.228Z,99088.41
2022-11-23T20:39:17.049Z,99094.75
2022-11-23T20:41:46.085Z,99094.25
2022-11-23T20:44:15.746Z,99097.81
2022-11-23T20:49:33.544Z,99090.16
2022-11-23T20:52:02.792Z,99092.19
2022-11-23T20:54:32.808Z,99087.88
2022-11-23T20:57:01.364Z,99083.56
2022-11-23T20:59:29.844Z,99083.31
2022-11-23T21:01:58.243Z,99084.59
2022-11-23T21:04:26.779Z,99102.66
2022-11-23T21:06:55.563Z,99099.09
2022-11-23T21:09:23.929Z,99096.31
2022-11-23T21:12:10.557Z,99099.88
2022-11-23T21:14:38.991Z,99106.00
2022-11-23T21:17:07.560Z,99116.44
2022-11-23T21:19:38.470Z,99122.56
2022-11-23T21:22:09.344Z,99130.19
2022-11-23T21:24:37.984Z,99127.38
2022-11-23T21:27:08.971Z,99129.44
2022-11-23T21:29:37.336Z,99124.06
2022-11-23T21:32:06.509Z,99118.47
2022-11-23T21:34:35.041Z,99123.56
2022-11-23T21:37:03.508Z,99136.28
2022-11-23T21:39:32.189Z,99138.56
2022-11-23T21:42:00.504Z,99136.53
2022-11-23T21:44:28.939Z,99142.88
2022-11-23T21:46:57.601Z,99139.56
2022-11-23T21:49:28.824Z,99141.88
2022-11-23T21:51:57.187Z,99147.72
2022-11-23T21:54:25.487Z,99138.53
2022-11-23T21:56:53.855Z,99138.03
2022-11-23T21:59:23.080Z,99139.56
2022-11-23T22:01:51.504Z,99131.41
2022-11-23T22:04:20.018Z,99131.16
2022-11-23T22:06:48.341Z,99128.59
2022-11-23T22:09:16.825Z,99142.59
2022-11-23T22:11:46.101Z,99142.59
2022-11-23T22:14:18.023Z,99140.56
2022-11-23T22:16:50.868Z,99140.03
2022-11-23T22:19:19.849Z,99128.06
2022-11-23T22:21:48.291Z,99136.47
2022-11-23T22:24:22.125Z,99128.84
2022-11-23T22:26:50.445Z,99126.56
2022-11-23T22:29:18.780Z,99121.72
2022-11-23T22:31:47.203Z,99120.44
2022-11-23T22:34:15.932Z,99124.50
2022-11-23T22:36:44.478Z,99129.88
2022-11-23T22:39:12.918Z,99143.88
2022-11-23T22:41:41.831Z,99139.56
2022-11-23T22:44:11.792Z,99148.47
2022-11-23T22:46:40.917Z,99147.72
2022-11-23T22:49:09.341Z,99146.94
2022-11-23T22:51:37.755Z,99146.94
2022-11-23T22:54:06.319Z,99151.78
2022-11-23T22:56:35.137Z,99156.63
2022-11-23T22:59:03.506Z,99160.19
2022-11-23T23:01:32.444Z,99169.88
2022-11-23T23:04:03.694Z,99174.72
2022-11-23T23:06:37.285Z,99185.16
2022-11-23T23:09:08.380Z,99194.31
2022-11-23T23:11:37.900Z,99204.75
2022-11-23T23:14:07.146Z,99210.38
2022-11-23T23:16:36.168Z,99208.84
2022-11-23T23:19:04.962Z,99215.22
2022-11-23T23:21:33.308Z,99213.16
2022-11-23T23:24:04.710Z,99217.50
2022-11-23T23:26:33.155Z,99208.31
2022-11-23T23:29:02.387Z,99211.38
2022-11-23T23:31:31.468Z,99218.25
2022-11-23T23:34:01.113Z,99209.34
2022-11-23T23:36:30.896Z,99217.75
2022-11-23T23:38:59.362Z,99210.09
2022-11-23T23:41:27.794Z,99214.44
2022-11-23T23:43:56.271Z,99201.44
2022-11-23T23:46:24.794Z,99210.09
2022-11-23T23:48:53.322Z,99208.03
2022-11-23T23:51:25.692Z,99206.28
2022-11-23T23:53:54.384Z,99204.25
2022-11-23T23:56:25.326Z,99207.81
2022-11-23T23:58:55.842Z,99207.81
